РУС

ENG

 
  Pireps - S7
 

Рейс SBI1094

  • Выполнял: Kirill Spirin
  • Аэропорт отправления: Nizhny Novgorod (UWGG)
  • Аэропорт назначения: Domodedovo Airport (UUDD)
  • Тип ВС: A319-112 (VP-BTP)
  • Время полёта: 01.02
  • Дата полёта: 01.08.2021
  • Маршрут: USTOK R834 MF
  • Статус: Одобрен

Детали полёта
Gross Revenue:
(105 load / $ 100.00 per unit
$ 10, 500.00
Fuel Cost:
(2237 fuel used @ 5.1 / unit)
$ 11, 408.70


Дополнительная информация о полёте:

Лог

Aircraft Used in flight is Airbus A320 Airbus Industries F-WWBA
12:45 Boarding
12:45 Navigation Lights ON at 270 AGL
12:45 Beacon Lights ON at 270 AGL
12:45 Brakes are On
12:50 Engine 2 Started
12:52 Engine 1 Started
12:52Flaps 1 Selected at 270ft and 0kts
12:52Flaps 2 Selected at 270ft and 0kts
12:53 Taxi Lights ON at 270 AGL
12:53 Spoilers Armed
12:53 Brakes are Released
12:57 Landing Lights ON at 270 AGL
12:59 You Took off @ 139 Knots and Flaps at Position 2
Departure Weather
UWGG 010530Z 25003MPS CAVOK 22/14 Q1011 R18L/090070 NOSIG
12:59 Strobe Lights ON at 270 AGL
12:59 Landing Gear Up @ 146 Knots and 310 Feet
12:59 Taxi Lights OFF at 320 AGL
13:00Flaps 1 Selected at 4200ft and 190kts
13:00Flaps Retracted at 4210ft and 190kts
13:01 Landing Lights OFF at 6480 AGL
13:01 Spoilers Disarmed
13:11 TOC Reached
13:39Flaps 1 Selected at 3210ft and 197kts
13:39 Spoilers Armed
13:39 Landing Lights ON at 3160 AGL
13:40 Landing Gear Down @ 182 Knots and 3000 Feet
13:41Flaps 3 Selected at 2990ft and 180kts
13:41Flaps 4 Selected at 2900ft and 153kts
13:41Flaps 5 Selected at 2810ft and 148kts
13:44 You Landed @ 123 Knots and with -400 Vertical Speed
Arrival Weather
UUDD 010530Z 17003MPS CAVOK 21/14 Q1011 R88/CLRD60 NOSIG
13:44 Strobe Lights OFF at 600 AGL
13:45 Taxi Lights ON at 600 AGL
13:45 Landing Lights OFF at 600 AGL
13:45 Taxi Lights OFF at 600 AGL
13:45 Taxi Lights ON at 600 AGL
13:45Flaps 4 Selected at 600ft and 11kts
13:45Flaps 2 Selected at 600ft and 11kts
13:45Flaps Retracted at 600ft and 11kts
13:46 Brakes are On
13:46 Taxi Lights OFF at 600 AGL
13:47 Engine 1 Stoped
13:47 Engine 2 Stoped
13:47 Navigation Lights OFF at 600 AGL
Pirep logged with S7 Tracking 1.0.0.14



Общая оценка полета : 100%




Route Map



 
 
   
 
Новости

29.12.2021 - C Новым годом

Дорогие друзья, поздравляю вас с Наступающим Новым годом!
Желаем успехов, приятных взлетов и мягких посадок!

   
 
Авторизация






Регистрация

Восстановить пароль?

Мы в соц. сетях

      



   
 





   
 


   
 


Яндекс.Метрика

www.va-s7.ru 2011-2021
Все права защищены.



Минуточку внимания!
Сайт va-s7.ru не является коммерческим проектом. Мы не имеем отношения к торговым маркам "S7" и "Globus" и их представителям.
Эмблемы на сайте являются собственностью соответствующих компаний.

аэронавигационная метеорологическая и любая другая информация с данного ресурса ни в коем случае не должна использоваться для реальных полетов